Time;durP1;ratioP1;P1;durP2;ratioP2;P2;SDS_P1;SDS_P2;PMS_P1;PMS_P2;Temp;Humidity;BMP_temperature;BMP_pressure;BME280_temperature;BME280_humidity;BME280_pressure;Samples;Min_cycle;Max_cycle;Signal;HPM_P1;HPM_P2
2024/02/29 00:01:00;;;;;;;36.75;34.53;;;;;;;2.34;100.00;101710.59;5035226;28;20049;-72
2024/02/29 00:03:27;;;;;;;31.98;30.02;;;;;;;2.40;100.00;101709.25;5024853;28;20060;-72
2024/02/29 00:05:55;;;;;;;34.38;32.28;;;;;;;2.22;100.00;101706.38;5028737;28;20049;-72
2024/02/29 00:08:22;;;;;;;35.13;32.67;;;;;;;2.19;100.00;101706.63;5015191;28;20046;-72
2024/02/29 00:10:51;;;;;;;36.67;34.47;;;;;;;1.99;100.00;101706.44;5025330;28;20468;-71
2024/02/29 00:13:17;;;;;;;34.85;32.75;;;;;;;2.15;100.00;101711.28;5028989;28;20049;-72
2024/02/29 00:15:44;;;;;;;35.08;32.97;;;;;;;2.04;100.00;101706.91;5042189;28;20776;-71
2024/02/29 00:18:11;;;;;;;34.40;32.13;;;;;;;2.19;100.00;101704.81;5032409;28;20531;-70
2024/02/29 00:20:47;;;;;;;38.60;36.13;;;;;;;2.05;100.00;101708.56;5032039;28;20057;-72
2024/02/29 00:23:14;;;;;;;39.25;37.05;;;;;;;2.11;100.00;101706.41;5019097;28;20077;-71
2024/02/29 00:25:43;;;;;;;32.10;30.20;;;;;;;2.08;100.00;101707.50;5037512;28;20053;-72
2024/02/29 00:28:11;;;;;;;37.75;35.35;;;;;;;2.35;100.00;101711.41;5031691;28;20056;-71
2024/02/29 00:30:40;;;;;;;36.47;34.08;;;;;;;1.87;100.00;101709.25;5037809;28;20059;-71
2024/02/29 00:33:07;;;;;;;44.08;41.45;;;;;;;1.94;100.00;101711.25;5034155;28;20049;-71
2024/02/29 00:35:34;;;;;;;36.42;34.20;;;;;;;2.01;100.00;101701.09;5031257;28;20072;-70
2024/02/29 00:38:01;;;;;;;34.50;32.40;;;;;;;2.02;100.00;101698.34;5030777;28;20060;-70
2024/02/29 00:40:28;;;;;;;34.90;31.98;;;;;;;2.02;100.00;101700.13;5031718;28;20042;-71
2024/02/29 00:42:56;;;;;;;40.45;37.92;;;;;;;2.02;100.00;101700.13;5031616;28;20116;-70
2024/02/29 00:45:24;;;;;;;40.38;36.95;;;;;;;1.95;100.00;101697.19;5024426;28;20064;-71
2024/02/29 00:47:52;;;;;;;37.28;34.95;;;;;;;1.77;100.00;101706.53;5027559;28;20059;-72
2024/02/29 00:50:19;;;;;;;38.97;36.22;;;;;;;1.74;100.00;101707.63;5031783;28;20048;-72
2024/02/29 00:52:46;;;;;;;34.25;32.15;;;;;;;1.54;100.00;101703.16;5036795;28;20053;-72
2024/02/29 00:55:13;;;;;;;35.53;33.53;;;;;;;1.66;100.00;101707.41;5008789;28;20111;-72
2024/02/29 00:57:41;;;;;;;41.28;38.58;;;;;;;1.45;100.00;101709.94;5035952;28;20046;-72
2024/02/29 01:00:11;;;;;;;44.55;41.70;;;;;;;1.29;100.00;101714.75;5022183;28;20054;-71
2024/02/29 01:02:40;;;;;;;67.78;63.63;;;;;;;1.47;100.00;101707.22;5029883;28;20056;-71
2024/02/29 01:05:07;;;;;;;84.47;79.43;;;;;;;1.64;100.00;101700.66;5029576;28;20053;-71
2024/02/29 01:07:34;;;;;;;67.53;63.53;;;;;;;1.28;100.00;101692.97;5037883;28;20060;-71
2024/02/29 01:10:01;;;;;;;71.82;67.32;;;;;;;1.72;100.00;101704.28;5030647;28;20053;-72
2024/02/29 01:12:27;;;;;;;86.93;81.60;;;;;;;1.65;100.00;101697.88;5022806;28;20046;-71
2024/02/29 01:14:54;;;;;;;90.35;85.43;;;;;;;1.68;100.00;101699.44;5050228;28;20850;-70
2024/02/29 01:17:22;;;;;;;95.93;90.68;;;;;;;1.49;100.00;101692.22;5030628;28;20057;-70
2024/02/29 01:19:51;;;;;;;81.68;77.47;;;;;;;1.60;100.00;101694.81;5036445;28;20125;-70
2024/02/29 01:22:18;;;;;;;81.63;76.97;;;;;;;1.61;100.00;101704.34;5025086;28;20046;-70
2024/02/29 01:24:44;;;;;;;88.90;84.00;;;;;;;1.54;100.00;101713.63;5023551;28;20077;-70
2024/02/29 01:27:11;;;;;;;88.50;83.50;;;;;;;1.64;100.00;101705.88;5020388;28;20472;-71
2024/02/29 01:29:40;;;;;;;94.90;89.85;;;;;;;1.46;100.00;101695.94;5032393;28;20050;-69
2024/02/29 01:32:07;;;;;;;33.40;31.30;;;;;;;1.43;100.00;101703.19;5031499;28;20053;-70
2024/02/29 01:34:34;;;;;;;31.00;28.90;;;;;;;1.48;100.00;101701.03;5030377;28;20689;-70
2024/02/29 01:37:03;;;;;;;31.48;29.38;;;;;;;1.45;100.00;101701.25;5027562;28;20108;-71
2024/02/29 01:39:30;;;;;;;40.45;37.45;;;;;;;1.46;100.00;101708.19;5025598;28;20076;-71
2024/02/29 01:41:57;;;;;;;33.25;31.23;;;;;;;1.54;100.00;101692.69;5028729;28;20049;-70
2024/02/29 01:44:24;;;;;;;39.33;37.05;;;;;;;1.12;100.00;101695.97;5031030;28;20058;-71
2024/02/29 01:46:51;;;;;;;38.35;36.05;;;;;;;1.16;100.00;101711.44;5026342;28;20060;-70
2024/02/29 01:49:18;;;;;;;40.20;37.80;;;;;;;1.29;100.00;101710.34;5029049;28;20563;-71
2024/02/29 01:51:46;;;;;;;36.97;34.78;;;;;;;1.37;100.00;101701.91;5027554;28;20528;-71
2024/02/29 01:54:15;;;;;;;34.75;32.65;;;;;;;1.18;100.00;101702.53;5013987;28;20073;-71
2024/02/29 01:56:42;;;;;;;36.55;34.25;;;;;;;1.27;100.00;101698.31;5019930;28;20092;-70
2024/02/29 01:59:08;;;;;;;37.97;35.25;;;;;;;1.35;100.00;101694.16;5028086;28;20064;-71
2024/02/29 02:01:36;;;;;;;43.58;41.13;;;;;;;1.26;100.00;101700.13;5018927;28;20068;-72
2024/02/29 02:04:09;;;;;;;42.70;40.13;;;;;;;1.31;100.00;101697.16;5029385;28;20045;-71
2024/02/29 02:06:36;;;;;;;36.42;34.15;;;;;;;1.28;100.00;101702.63;5030423;28;20115;-71
2024/02/29 02:09:04;;;;;;;56.72;53.17;;;;;;;1.20;100.00;101702.38;5028289;28;20056;-70
2024/02/29 02:11:32;;;;;;;47.08;44.28;;;;;;;1.36;100.00;101697.59;5041383;28;20041;-70
2024/02/29 02:14:00;;;;;;;43.53;40.65;;;;;;;1.18;100.00;101699.06;5036599;28;20543;-70
2024/02/29 02:16:26;;;;;;;35.40;33.38;;;;;;;1.34;100.00;101694.28;5033663;28;20053;-70
2024/02/29 02:18:53;;;;;;;36.03;33.75;;;;;;;1.33;100.00;101700.44;5029555;28;20065;-71
2024/02/29 02:21:21;;;;;;;42.78;40.22;;;;;;;1.33;100.00;101698.69;5037875;28;20786;-72
2024/02/29 02:23:49;;;;;;;41.58;38.58;;;;;;;0.94;100.00;101693.94;5028324;28;20049;-71
2024/02/29 02:26:26;;;;;;;35.72;33.20;;;;;;;1.14;100.00;101699.28;5023926;28;20128;-72
2024/02/29 02:28:57;;;;;;;31.67;29.58;;;;;;;1.34;100.00;101691.66;5025247;28;20060;-72
2024/02/29 02:31:24;;;;;;;30.75;28.77;;;;;;;1.24;100.00;101698.56;5016267;28;20170;-72
2024/02/29 02:33:52;;;;;;;35.47;33.17;;;;;;;1.24;100.00;101694.19;5013459;28;20424;-72
2024/02/29 02:36:21;;;;;;;38.25;35.58;;;;;;;1.17;100.00;101700.00;5025038;28;20045;-72
2024/02/29 02:38:48;;;;;;;34.78;32.28;;;;;;;1.12;100.00;101695.97;5036241;28;20100;-72
2024/02/29 02:41:14;;;;;;;39.90;37.65;;;;;;;0.99;100.00;101695.25;5015099;28;20049;-71
2024/02/29 02:43:44;;;;;;;37.38;35.08;;;;;;;0.94;100.00;101696.56;5035430;28;20057;-72
2024/02/29 02:46:12;;;;;;;41.20;38.13;;;;;;;0.92;100.00;101696.69;5015642;28;20053;-72
2024/02/29 02:48:38;;;;;;;33.50;31.38;;;;;;;0.89;100.00;101703.00;5038517;28;20068;-71
2024/02/29 02:51:06;;;;;;;34.42;32.22;;;;;;;1.05;100.00;101702.63;5027132;28;20642;-72
2024/02/29 02:53:34;;;;;;;41.70;38.05;;;;;;;1.07;100.00;101703.34;5024729;28;20049;-72
2024/02/29 02:56:01;;;;;;;42.28;39.03;;;;;;;0.98;100.00;101704.06;5025089;28;20045;-70
2024/02/29 02:58:28;;;;;;;35.97;33.78;;;;;;;1.21;100.00;101714.50;5014487;28;20056;-70
2024/02/29 03:00:55;;;;;;;36.97;34.67;;;;;;;0.98;100.00;101714.53;5024593;28;20060;-70
2024/02/29 03:03:22;;;;;;;38.58;36.08;;;;;;;1.07;100.00;101710.38;5022050;28;20050;-70
2024/02/29 03:05:49;;;;;;;41.45;38.83;;;;;;;1.14;100.00;101709.75;5036800;28;20403;-70
2024/02/29 03:08:16;;;;;;;41.10;38.25;;;;;;;1.01;100.00;101706.44;5016737;28;20057;-69
2024/02/29 03:10:44;;;;;;;39.40;36.80;;;;;;;0.94;100.00;101699.19;5015989;28;20057;-70
2024/02/29 03:13:11;;;;;;;37.13;35.03;;;;;;;0.94;100.00;101710.50;5031040;28;20063;-70
2024/02/29 03:15:38;;;;;;;38.25;35.60;;;;;;;1.00;100.00;101707.41;5048688;28;20056;-70
2024/02/29 03:18:08;;;;;;;42.25;39.53;;;;;;;1.03;100.00;101715.03;5038171;28;20049;-71
2024/02/29 03:20:35;;;;;;;70.65;65.97;;;;;;;0.94;100.00;101712.25;5033352;28;20451;-72
2024/02/29 03:23:03;;;;;;;65.63;61.72;;;;;;;1.18;100.00;101723.47;5029362;28;20424;-71
2024/02/29 03:25:30;;;;;;;79.78;75.00;;;;;;;0.88;100.00;101717.03;5027056;28;20053;-71
2024/02/29 03:27:58;;;;;;;68.32;64.45;;;;;;;1.03;100.00;101714.16;5027787;28;20500;-72
2024/02/29 03:30:25;;;;;;;68.28;63.55;;;;;;;0.80;100.00;101719.41;5018650;28;20076;-71
2024/02/29 03:32:53;;;;;;;53.17;49.88;;;;;;;0.79;100.00;101720.34;5022773;28;20041;-71
2024/02/29 03:35:20;;;;;;;39.80;37.33;;;;;;;0.60;100.00;101720.06;5029427;28;20439;-72
2024/02/29 03:37:47;;;;;;;36.92;34.63;;;;;;;0.48;100.00;101721.84;5031804;28;20052;-72
2024/02/29 03:40:16;;;;;;;40.25;37.42;;;;;;;0.36;100.00;101722.75;5018790;28;20058;-72
2024/02/29 03:42:43;;;;;;;35.25;33.00;;;;;;;0.27;100.00;101731.28;5020321;28;20436;-72
2024/02/29 03:45:11;;;;;;;36.15;33.45;;;;;;;0.55;100.00;101730.91;5016240;28;20058;-72
2024/02/29 03:47:38;;;;;;;50.25;47.17;;;;;;;0.54;100.00;101731.81;5020269;28;20523;-71
2024/02/29 03:50:06;;;;;;;58.08;54.70;;;;;;;0.73;100.00;101726.06;5023981;28;20057;-71
2024/02/29 03:52:33;;;;;;;62.00;58.40;;;;;;;0.88;100.00;101724.06;5028955;28;20056;-71
2024/02/29 03:55:00;;;;;;;63.25;59.72;;;;;;;0.20;100.00;101718.69;5034837;28;20975;-72
2024/02/29 03:57:27;;;;;;;65.38;61.15;;;;;;;0.30;100.00;101723.22;5025748;28;20054;-72
2024/02/29 03:59:53;;;;;;;41.72;38.92;;;;;;;0.45;100.00;101722.94;5031525;28;20064;-72
2024/02/29 04:02:25;;;;;;;39.60;37.00;;;;;;;0.56;100.00;101729.13;5026021;28;20053;-72
2024/02/29 04:04:52;;;;;;;36.00;33.72;;;;;;;0.39;100.00;101720.78;5022742;28;20060;-73
2024/02/29 04:07:18;;;;;;;35.47;33.17;;;;;;;0.58;100.00;101727.22;5028603;28;20135;-71
2024/02/29 04:09:55;;;;;;;43.05;40.25;;;;;;;0.62;100.00;101726.03;5033675;28;20452;-72
2024/02/29 04:12:22;;;;;;;34.70;32.10;;;;;;;0.46;100.00;101728.97;5027918;28;20103;-72
2024/02/29 04:14:49;;;;;;;37.38;34.40;;;;;;;0.32;100.00;101722.16;5030527;28;20057;-72
2024/02/29 04:17:17;;;;;;;50.60;47.58;;;;;;;0.37;100.00;101733.13;5039683;28;20504;-72
2024/02/29 04:19:52;;;;;;;47.42;44.42;;;;;;;0.41;100.00;101737.16;5035345;28;20041;-72
2024/02/29 04:22:19;;;;;;;48.17;45.28;;;;;;;0.44;100.00;101733.47;5025500;28;20050;-72
2024/02/29 04:24:46;;;;;;;44.00;41.40;;;;;;;0.37;100.00;101735.72;5040237;28;20052;-72
2024/02/29 04:27:12;;;;;;;42.58;39.97;;;;;;;0.17;100.00;101739.81;5042018;28;20053;-72
2024/02/29 04:29:39;;;;;;;40.95;38.55;;;;;;;0.19;100.00;101740.53;5047602;28;20083;-72
2024/02/29 04:32:07;;;;;;;41.05;38.55;;;;;;;-0.06;100.00;101738.03;5032727;28;20526;-73
2024/02/29 04:34:34;;;;;;;50.85;47.55;;;;;;;0.06;100.00;101745.00;5034778;28;20052;-72
2024/02/29 04:37:02;;;;;;;47.67;44.90;;;;;;;0.29;100.00;101737.25;5026717;28;20107;-72
2024/02/29 04:39:29;;;;;;;49.55;46.53;;;;;;;0.35;100.00;101744.63;5044692;28;20052;-72
2024/02/29 04:41:56;;;;;;;55.22;52.10;;;;;;;0.32;100.00;101750.91;5043455;28;20443;-72
2024/02/29 04:44:23;;;;;;;58.45;54.55;;;;;;;0.20;100.00;101750.03;5036920;28;20050;-71
2024/02/29 04:46:50;;;;;;;43.83;41.22;;;;;;;0.22;100.00;101752.53;5020472;28;20049;-71
2024/02/29 04:49:17;;;;;;;45.38;42.60;;;;;;;0.04;100.00;101749.50;5027112;28;20041;-71
2024/02/29 04:51:44;;;;;;;44.92;42.30;;;;;;;0.12;100.00;101751.53;5015940;28;20046;-71
2024/02/29 04:54:12;;;;;;;37.45;35.17;;;;;;;0.17;100.00;101747.66;5031837;28;20401;-71
2024/02/29 04:56:39;;;;;;;34.92;32.63;;;;;;;0.13;100.00;101764.50;5027535;28;20061;-70
2024/02/29 04:59:09;;;;;;;31.08;29.05;;;;;;;-0.03;100.00;101753.50;5032878;28;20053;-71
2024/02/29 05:01:39;;;;;;;43.75;40.70;;;;;;;0.17;100.00;101758.09;5027157;28;20103;-70
2024/02/29 05:04:07;;;;;;;55.88;52.55;;;;;;;0.33;100.00;101755.19;5027183;28;20054;-71
2024/02/29 05:06:33;;;;;;;38.70;36.20;;;;;;;0.37;100.00;101755.81;5029527;28;20045;-71
2024/02/29 05:09:00;;;;;;;29.05;26.60;;;;;;;0.32;100.00;101760.53;5035526;28;20047;-72
2024/02/29 05:11:29;;;;;;;43.00;25.98;;;;;;;0.07;100.00;101766.75;5029864;28;20103;-71
2024/02/29 05:13:57;;;;;;;29.10;27.27;;;;;;;0.31;100.00;101761.50;5035401;28;20053;-72
2024/02/29 05:16:27;;;;;;;29.00;27.08;;;;;;;0.41;100.00;101768.53;5029454;28;20177;-71
2024/02/29 05:18:54;;;;;;;28.30;26.00;;;;;;;0.50;100.00;101767.00;5033429;28;20048;-71
2024/02/29 05:21:20;;;;;;;27.83;25.90;;;;;;;1.43;100.00;101772.09;5029805;28;20080;-70
2024/02/29 05:23:48;;;;;;;30.80;28.50;;;;;;;7.72;100.00;101772.34;5027355;28;20421;-70
2024/02/29 05:26:15;;;;;;;28.17;26.38;;;;;;;1.22;100.00;101768.53;5019057;28;20057;-68
2024/02/29 05:28:43;;;;;;;31.25;28.92;;;;;;;0.85;100.00;101766.13;5026349;28;20053;-71
2024/02/29 05:31:10;;;;;;;31.83;29.52;;;;;;;0.35;100.00;101761.13;5022046;28;20732;-70
2024/02/29 05:33:37;;;;;;;31.25;29.05;;;;;;;0.23;100.00;101764.66;5025775;28;20073;-69
2024/02/29 05:36:05;;;;;;;33.47;31.08;;;;;;;0.56;100.00;101757.88;5030102;28;20052;-68
2024/02/29 05:38:32;;;;;;;36.28;33.83;;;;;;;0.54;100.00;101765.81;5036501;28;20852;-68
2024/02/29 05:40:59;;;;;;;31.73;29.73;;;;;;;0.53;100.00;101774.63;5021261;28;20057;-68
2024/02/29 05:43:26;;;;;;;34.83;30.98;;;;;;;0.71;100.00;101769.78;5021946;28;20057;-68
2024/02/29 05:45:54;;;;;;;30.98;28.98;;;;;;;0.68;100.00;101764.78;5026097;28;20065;-68
2024/02/29 05:48:21;;;;;;;34.45;31.73;;;;;;;1.03;100.00;101764.72;5018832;28;20964;-69
2024/02/29 05:50:48;;;;;;;32.03;29.92;;;;;;;1.35;100.00;101767.44;5023595;28;20096;-68
2024/02/29 05:53:15;;;;;;;31.50;29.40;;;;;;;1.53;100.00;101770.41;5021611;28;20049;-68
2024/02/29 05:55:42;;;;;;;31.70;29.70;;;;;;;1.65;100.00;101773.84;5025282;28;20450;-68
2024/02/29 05:58:09;;;;;;;33.40;31.02;;;;;;;1.92;100.00;101773.41;5017448;28;20046;-68
2024/02/29 06:00:36;;;;;;;36.65;34.15;;;;;;;2.24;100.00;101770.81;5023865;28;20053;-68
2024/02/29 06:03:05;;;;;;;38.63;36.22;;;;;;;2.30;100.00;101774.72;5020742;28;20512;-70
2024/02/29 06:05:32;;;;;;;39.95;37.45;;;;;;;2.41;100.00;101766.78;5018641;28;20049;-68
2024/02/29 06:07:59;;;;;;;39.88;37.38;;;;;;;2.62;100.00;101772.03;5031135;28;20382;-68
2024/02/29 06:10:26;;;;;;;44.13;41.22;;;;;;;2.63;100.00;101773.72;5022986;28;20068;-68
2024/02/29 06:12:53;;;;;;;46.38;43.55;;;;;;;2.89;100.00;101775.94;5018287;28;20156;-67
2024/02/29 06:15:20;;;;;;;40.85;38.15;;;;;;;2.97;100.00;101776.13;5019173;28;20058;-70
2024/02/29 06:17:49;;;;;;;36.17;33.67;;;;;;;3.30;100.00;101763.69;5023656;28;20092;-70
2024/02/29 06:20:17;;;;;;;41.08;38.28;;;;;;;3.58;100.00;101762.13;5016267;28;20054;-68
2024/02/29 06:22:44;;;;;;;39.40;36.70;;;;;;;3.79;100.00;101765.47;5022122;28;20057;-68
2024/02/29 06:25:11;;;;;;;40.92;38.17;;;;;;;3.87;100.00;101765.66;5022706;28;20145;-69
2024/02/29 06:27:39;;;;;;;43.13;40.38;;;;;;;4.04;100.00;101763.28;5029727;28;20064;-68
2024/02/29 06:30:08;;;;;;;42.08;39.45;;;;;;;4.19;100.00;101761.09;5033377;28;20051;-68
2024/02/29 06:32:34;;;;;;;41.90;39.40;;;;;;;4.30;100.00;101761.78;5037100;28;20052;-68
2024/02/29 06:35:01;;;;;;;44.78;41.83;;;;;;;4.59;100.00;101767.00;5020932;28;20053;-68
2024/02/29 06:37:29;;;;;;;42.65;40.08;;;;;;;4.83;100.00;101773.59;5015671;28;20061;-68
2024/02/29 06:39:58;;;;;;;42.05;39.53;;;;;;;4.74;100.00;101774.44;5032279;28;20049;-69
2024/02/29 06:42:25;;;;;;;43.58;40.72;;;;;;;4.98;100.00;101766.09;5020208;28;20092;-68
2024/02/29 06:44:52;;;;;;;42.08;38.97;;;;;;;5.03;100.00;101762.03;5030407;28;20057;-69
2024/02/29 06:47:19;;;;;;;43.13;40.42;;;;;;;5.15;100.00;101751.34;5036444;28;20053;-68
2024/02/29 06:49:46;;;;;;;42.10;39.10;;;;;;;5.13;100.00;101751.47;5030075;28;20064;-69
2024/02/29 06:52:13;;;;;;;40.58;37.88;;;;;;;5.04;100.00;101762.88;5025286;28;20049;-68
2024/02/29 06:54:42;;;;;;;39.35;36.85;;;;;;;4.56;100.00;101767.28;5029628;28;20053;-69
2024/02/29 06:57:09;;;;;;;40.47;37.88;;;;;;;5.19;100.00;101764.06;5017881;28;20128;-69
2024/02/29 06:59:36;;;;;;;44.13;41.03;;;;;;;5.55;100.00;101764.16;5026308;28;20045;-68
2024/02/29 07:02:03;;;;;;;44.03;40.75;;;;;;;5.77;100.00;101778.75;5026383;28;20421;-68
2024/02/29 07:04:30;;;;;;;40.90;38.20;;;;;;;6.01;100.00;101777.38;5029380;28;20044;-69
2024/02/29 07:06:57;;;;;;;43.65;40.78;;;;;;;5.34;100.00;101772.31;5027974;28;20067;-69
2024/02/29 07:09:23;;;;;;;42.63;40.03;;;;;;;5.43;100.00;101765.34;5031880;28;20048;-69
2024/02/29 07:11:51;;;;;;;38.25;35.65;;;;;;;5.45;100.00;101766.03;5027441;28;20057;-69
2024/02/29 07:14:18;;;;;;;41.70;37.65;;;;;;;5.84;100.00;101758.72;5027124;28;20064;-69
2024/02/29 07:16:46;;;;;;;39.97;37.13;;;;;;;6.05;100.00;101757.63;5030683;28;20061;-68
2024/02/29 07:19:13;;;;;;;39.45;36.95;;;;;;;6.47;100.00;101762.25;5026287;28;20421;-69
2024/02/29 07:21:41;;;;;;;41.90;39.15;;;;;;;6.51;100.00;101766.28;5021317;28;20053;-69
2024/02/29 07:24:08;;;;;;;40.08;37.47;;;;;;;6.37;100.00;101786.94;5022389;28;20496;-68
2024/02/29 07:26:41;;;;;;;37.97;35.38;;;;;;;6.52;100.00;101786.41;5033531;28;20448;-68
2024/02/29 07:29:09;;;;;;;37.55;34.85;;;;;;;6.69;100.00;101784.69;5023470;28;20058;-68
2024/02/29 07:31:40;;;;;;;35.95;33.65;;;;;;;6.44;100.00;101784.50;5030479;28;20733;-69
2024/02/29 07:34:07;;;;;;;38.47;36.08;;;;;;;6.54;100.00;101787.91;5032257;28;20057;-68
2024/02/29 07:36:34;;;;;;;41.58;38.70;;;;;;;6.65;100.00;101774.44;5036219;28;20452;-69
2024/02/29 07:39:02;;;;;;;38.90;36.50;;;;;;;6.88;100.00;101774.75;5028896;28;20056;-68
2024/02/29 07:41:29;;;;;;;35.70;33.40;;;;;;;6.56;100.00;101769.25;5035803;28;20130;-68
2024/02/29 07:43:57;;;;;;;40.28;37.58;;;;;;;6.71;100.00;101774.81;5020040;28;20053;-68
2024/02/29 07:46:25;;;;;;;40.83;38.30;;;;;;;6.69;100.00;101776.78;5030915;28;20530;-68
2024/02/29 07:48:52;;;;;;;39.75;36.78;;;;;;;6.80;100.00;101774.69;5025594;28;20103;-68
2024/02/29 07:51:19;;;;;;;39.47;36.97;;;;;;;6.79;100.00;101774.88;5027497;28;20046;-69
2024/02/29 07:53:46;;;;;;;37.67;35.17;;;;;;;6.65;100.00;101768.34;5019929;28;20045;-68
2024/02/29 07:56:12;;;;;;;42.15;39.60;;;;;;;7.14;100.00;101773.94;5024031;28;20073;-69
2024/02/29 07:58:41;;;;;;;39.95;37.45;;;;;;;7.33;100.00;101773.69;5023160;28;20160;-69
2024/02/29 08:01:07;;;;;;;40.35;37.75;;;;;;;7.25;100.00;101772.81;5022606;28;20058;-69
2024/02/29 08:03:36;;;;;;;40.70;37.97;;;;;;;7.20;100.00;101762.72;5029336;28;20438;-69
2024/02/29 08:06:04;;;;;;;40.53;37.92;;;;;;;7.08;100.00;101763.97;5018965;28;20099;-69
2024/02/29 08:08:31;;;;;;;42.90;40.10;;;;;;;7.25;100.00;101775.47;5027505;28;20049;-69
2024/02/29 08:10:57;;;;;;;39.55;37.05;;;;;;;7.20;100.00;101775.09;5029733;28;20144;-69
2024/02/29 08:13:24;;;;;;;38.92;36.45;;;;;;;7.22;100.00;101771.31;5028961;28;20061;-69
2024/02/29 08:15:52;;;;;;;40.15;37.55;;;;;;;7.02;100.00;101769.88;5024538;28;20071;-69
2024/02/29 08:18:19;;;;;;;44.78;41.70;;;;;;;7.09;100.00;101771.75;5026685;28;20435;-69
2024/02/29 08:20:48;;;;;;;41.33;38.38;;;;;;;7.02;100.00;101767.25;5025727;28;20060;-68
2024/02/29 08:23:15;;;;;;;38.25;35.70;;;;;;;7.66;100.00;101770.34;5025312;28;20080;-71
2024/02/29 08:25:42;;;;;;;39.95;37.55;;;;;;;7.49;100.00;101774.72;5037130;28;20057;-71
2024/02/29 08:28:09;;;;;;;40.38;37.97;;;;;;;7.54;100.00;101775.91;5014401;28;20555;-71
2024/02/29 08:30:36;;;;;;;108.07;94.65;;;;;;;7.39;100.00;101772.22;5025100;28;20045;-71
2024/02/29 08:33:04;;;;;;;61.33;55.55;;;;;;;7.79;100.00;101775.97;5030559;28;20057;-71
2024/02/29 08:35:30;;;;;;;41.53;38.92;;;;;;;7.67;100.00;101770.16;5016283;28;20056;-71
2024/02/29 08:38:00;;;;;;;36.92;34.58;;;;;;;7.70;100.00;101766.38;5020736;28;20492;-71
2024/02/29 08:40:27;;;;;;;37.05;34.75;;;;;;;7.76;100.00;101769.19;5028047;28;20061;-71
2024/02/29 08:42:53;;;;;;;38.50;35.97;;;;;;;7.83;100.00;101769.38;5028473;28;20045;-71
2024/02/29 08:45:20;;;;;;;40.92;38.08;;;;;;;7.97;100.00;101766.09;5039665;28;20049;-71
2024/02/29 08:47:47;;;;;;;41.05;38.03;;;;;;;7.82;100.00;101767.72;5019703;28;20053;-71
2024/02/29 08:50:14;;;;;;;41.70;38.80;;;;;;;8.07;100.00;101757.19;5022793;28;20630;-72
2024/02/29 08:52:41;;;;;;;40.75;38.05;;;;;;;7.93;100.00;101759.50;5015983;28;20057;-71
2024/02/29 08:55:10;;;;;;;38.83;36.33;;;;;;;8.03;100.00;101761.97;5024802;28;20451;-71
2024/02/29 08:57:40;;;;;;;39.90;37.30;;;;;;;8.15;100.00;101762.50;5028186;28;20053;-71
2024/02/29 09:00:08;;;;;;;40.22;37.58;;;;;;;8.20;100.00;101763.66;5019916;28;20061;-71
2024/02/29 09:02:35;;;;;;;38.60;36.20;;;;;;;8.02;100.00;101758.50;5020283;28;20055;-71
2024/02/29 09:05:02;;;;;;;38.00;35.65;;;;;;;8.08;100.00;101762.31;5021194;28;20137;-70
2024/02/29 09:07:32;;;;;;;40.88;38.17;;;;;;;8.34;100.00;101759.50;5026569;28;20069;-71
2024/02/29 09:09:59;;;;;;;40.70;38.10;;;;;;;8.45;100.00;101763.69;5031109;28;20045;-72
2024/02/29 09:12:27;;;;;;;42.10;39.47;;;;;;;8.68;100.00;101755.88;5022127;28;20050;-72
2024/02/29 09:14:54;;;;;;;41.78;38.95;;;;;;;8.60;100.00;101746.13;5019252;28;20508;-72
2024/02/29 09:17:21;;;;;;;40.60;38.00;;;;;;;8.66;100.00;101748.09;5022312;28;20057;-71
2024/02/29 09:19:48;;;;;;;43.05;40.20;;;;;;;8.75;100.00;101748.91;5028778;28;20053;-71
2024/02/29 09:22:15;;;;;;;38.97;36.47;;;;;;;8.33;100.00;101751.75;5017586;28;20061;-71
2024/02/29 09:24:41;;;;;;;40.33;37.92;;;;;;;8.61;100.00;101750.41;5013450;28;20049;-71
2024/02/29 09:27:09;;;;;;;41.33;38.67;;;;;;;8.68;100.00;101754.06;5020118;28;20057;-72
2024/02/29 09:29:37;;;;;;;44.25;41.03;;;;;;;8.95;100.00;101749.34;5027079;28;20046;-72
2024/02/29 09:32:04;;;;;;;40.55;38.05;;;;;;;9.20;100.00;101746.63;5036018;28;20492;-72
2024/02/29 09:34:34;;;;;;;42.15;39.55;;;;;;;8.99;100.00;101752.50;5042541;28;20830;-72
2024/02/29 09:37:01;;;;;;;43.58;40.75;;;;;;;9.25;100.00;101745.09;5042050;28;20057;-71
2024/02/29 09:39:28;;;;;;;42.40;39.90;;;;;;;9.26;100.00;101753.88;5027372;28;20053;-72
2024/02/29 09:41:55;;;;;;;40.90;38.30;;;;;;;8.85;100.00;101744.25;5014157;28;20064;-70
2024/02/29 09:44:24;;;;;;;41.50;38.70;;;;;;;9.24;100.00;101743.47;5025802;28;20609;-70
2024/02/29 09:46:52;;;;;;;45.05;42.15;;;;;;;9.61;100.00;101750.72;5027771;28;20119;-72
2024/02/29 09:49:19;;;;;;;50.75;47.55;;;;;;;9.57;100.00;101748.63;5022352;28;20068;-71
2024/02/29 09:51:47;;;;;;;47.35;44.40;;;;;;;9.51;100.00;101736.06;5034903;28;20463;-71
2024/02/29 09:54:17;;;;;;;45.17;41.75;;;;;;;9.71;100.00;101736.41;5020310;28;20057;-71
2024/02/29 09:56:45;;;;;;;50.70;47.60;;;;;;;9.71;100.00;101733.78;5021607;28;20061;-71
2024/02/29 09:59:16;;;;;;;50.53;47.42;;;;;;;10.31;100.00;101736.50;5040314;28;20053;-71
2024/02/29 10:01:45;;;;;;;41.90;39.20;;;;;;;10.71;100.00;101731.84;5018195;28;20432;-70
2024/02/29 10:04:13;;;;;;;48.55;45.75;;;;;;;10.62;100.00;101732.06;5019780;28;20053;-71
2024/02/29 10:06:40;;;;;;;45.60;42.80;;;;;;;10.64;100.00;101727.41;5032870;28;20044;-71
2024/02/29 10:09:07;;;;;;;40.50;38.00;;;;;;;10.52;100.00;101727.84;5032855;28;20057;-71
2024/02/29 10:11:34;;;;;;;43.30;40.60;;;;;;;10.84;100.00;101715.25;5035176;28;20053;-71
2024/02/29 10:14:02;;;;;;;50.63;47.53;;;;;;;10.75;100.00;101714.50;5039469;28;20064;-71
2024/02/29 10:16:31;;;;;;;47.90;45.00;;;;;;;10.81;100.00;101722.75;5021766;28;20058;-71
2024/02/29 10:19:00;;;;;;;44.60;41.95;;;;;;;10.36;100.00;101722.69;5026808;28;20072;-71
2024/02/29 10:21:34;;;;;;;45.25;42.65;;;;;;;10.23;100.00;101712.66;5028238;28;20130;-71
2024/02/29 10:24:01;;;;;;;44.67;42.08;;;;;;;10.44;100.00;101709.34;5030816;28;20053;-72
2024/02/29 10:26:28;;;;;;;39.55;37.13;;;;;;;10.20;100.00;101710.38;5028653;28;20140;-72
2024/02/29 10:29:03;;;;;;;42.22;39.72;;;;;;;10.14;100.00;101703.13;5030033;28;20052;-72
2024/02/29 10:31:30;;;;;;;41.38;38.63;;;;;;;9.84;100.00;101704.84;5012078;28;20050;-72
2024/02/29 10:33:57;;;;;;;42.83;40.00;;;;;;;10.13;100.00;101705.94;5024201;28;20050;-71
2024/02/29 10:36:24;;;;;;;45.92;43.22;;;;;;;10.21;100.00;101698.72;5027731;28;20104;-72
2024/02/29 10:38:54;;;;;;;44.58;41.88;;;;;;;9.82;100.00;101697.06;5026853;28;20540;-71
2024/02/29 10:41:22;;;;;;;44.22;41.53;;;;;;;10.07;100.00;101683.59;5030844;28;20121;-71
2024/02/29 10:43:52;;;;;;;40.17;37.78;;;;;;;10.23;100.00;101686.13;5022769;28;20520;-71
2024/02/29 10:46:20;;;;;;;38.80;36.25;;;;;;;10.03;100.00;101695.56;5025240;28;20045;-72
2024/02/29 10:48:50;;;;;;;34.15;31.95;;;;;;;9.80;100.00;101688.47;5038792;28;20051;-71
2024/02/29 10:51:32;;;;;;;45.05;42.08;;;;;;;9.94;100.00;101680.72;5033947;28;20547;-71
2024/02/29 10:54:20;;;;;;;46.67;43.28;;;;;;;9.80;100.00;101671.69;5029747;28;20057;-71
2024/02/29 10:56:48;;;;;;;43.45;40.55;;;;;;;9.94;100.00;101672.75;5023714;28;20479;-71
2024/02/29 10:59:18;;;;;;;44.10;41.15;;;;;;;10.16;100.00;101671.06;5038336;28;20060;-71
2024/02/29 11:01:46;;;;;;;46.22;42.88;;;;;;;10.12;100.00;101675.91;5028174;28;20048;-72
2024/02/29 11:04:14;;;;;;;43.03;40.33;;;;;;;10.47;100.00;101678.97;5024089;28;20456;-71
2024/02/29 11:06:45;;;;;;;41.80;39.10;;;;;;;10.30;100.00;101671.13;5018588;28;20523;-71
2024/02/29 11:09:15;;;;;;;44.75;42.15;;;;;;;10.22;100.00;101660.56;5009613;28;20046;-71
2024/02/29 11:11:45;;;;;;;35.25;33.05;;;;;;;10.49;100.00;101661.81;5019445;28;20054;-71